sensor_id;sensor_type;location;lat;lon;timestamp;temperature;humidity
33988;DHT22;37428;53.580;-1.666;2024-02-21T00:01:27;7.90;99.90
33988;DHT22;37428;53.580;-1.666;2024-02-21T00:04:44;7.90;99.90
33988;DHT22;37428;53.580;-1.666;2024-02-21T00:07:49;7.90;99.90
33988;DHT22;37428;53.580;-1.666;2024-02-21T00:10:51;7.90;99.90
33988;DHT22;37428;53.580;-1.666;2024-02-21T00:13:55;7.90;99.90
33988;DHT22;37428;53.580;-1.666;2024-02-21T00:16:58;7.90;99.90
33988;DHT22;37428;53.580;-1.666;2024-02-21T00:20:00;7.80;99.90
33988;DHT22;37428;53.580;-1.666;2024-02-21T00:23:08;7.80;99.90
33988;DHT22;37428;53.580;-1.666;2024-02-21T00:26:10;7.80;99.90
33988;DHT22;37428;53.580;-1.666;2024-02-21T00:29:14;7.80;99.90
33988;DHT22;37428;53.580;-1.666;2024-02-21T00:32:37;7.80;99.90
33988;DHT22;37428;53.580;-1.666;2024-02-21T00:35:40;7.80;99.90
33988;DHT22;37428;53.580;-1.666;2024-02-21T00:38:50;7.70;99.90
33988;DHT22;37428;53.580;-1.666;2024-02-21T00:41:55;7.70;99.90
33988;DHT22;37428;53.580;-1.666;2024-02-21T00:45:04;7.60;99.90
33988;DHT22;37428;53.580;-1.666;2024-02-21T00:48:07;7.60;99.90
33988;DHT22;37428;53.580;-1.666;2024-02-21T00:51:09;7.60;99.90
33988;DHT22;37428;53.580;-1.666;2024-02-21T00:54:15;7.60;99.90
33988;DHT22;37428;53.580;-1.666;2024-02-21T00:57:18;7.60;99.90
33988;DHT22;37428;53.580;-1.666;2024-02-21T01:00:20;7.60;99.90
33988;DHT22;37428;53.580;-1.666;2024-02-21T01:03:22;7.60;99.90
33988;DHT22;37428;53.580;-1.666;2024-02-21T01:06:24;7.60;99.90
33988;DHT22;37428;53.580;-1.666;2024-02-21T01:09:35;7.60;99.90
33988;DHT22;37428;53.580;-1.666;2024-02-21T01:12:39;7.60;99.90
33988;DHT22;37428;53.580;-1.666;2024-02-21T01:15:47;7.60;99.90
33988;DHT22;37428;53.580;-1.666;2024-02-21T01:18:49;7.50;99.90
33988;DHT22;37428;53.580;-1.666;2024-02-21T01:21:51;7.50;99.90
33988;DHT22;37428;53.580;-1.666;2024-02-21T01:24:55;7.40;99.90
33988;DHT22;37428;53.580;-1.666;2024-02-21T01:27:57;7.40;99.90
33988;DHT22;37428;53.580;-1.666;2024-02-21T01:31:13;7.30;99.90
33988;DHT22;37428;53.580;-1.666;2024-02-21T01:34:16;7.30;99.90
33988;DHT22;37428;53.580;-1.666;2024-02-21T01:37:20;7.30;99.90
33988;DHT22;37428;53.580;-1.666;2024-02-21T01:40:34;7.20;99.90
33988;DHT22;37428;53.580;-1.666;2024-02-21T01:43:38;7.20;99.90
33988;DHT22;37428;53.580;-1.666;2024-02-21T01:46:54;7.20;99.90
33988;DHT22;37428;53.580;-1.666;2024-02-21T01:49:58;7.10;99.90
33988;DHT22;37428;53.580;-1.666;2024-02-21T01:53:02;7.20;99.90
33988;DHT22;37428;53.580;-1.666;2024-02-21T01:56:06;7.20;99.90
33988;DHT22;37428;53.580;-1.666;2024-02-21T01:59:09;7.30;99.90
33988;DHT22;37428;53.580;-1.666;2024-02-21T02:02:18;7.30;99.90
33988;DHT22;37428;53.580;-1.666;2024-02-21T02:05:24;7.30;99.90
33988;DHT22;37428;53.580;-1.666;2024-02-21T02:08:35;7.30;99.90
33988;DHT22;37428;53.580;-1.666;2024-02-21T02:11:39;7.30;99.90
33988;DHT22;37428;53.580;-1.666;2024-02-21T02:14:43;7.30;99.90
33988;DHT22;37428;53.580;-1.666;2024-02-21T02:17:45;7.30;99.90
33988;DHT22;37428;53.580;-1.666;2024-02-21T02:20:47;7.40;99.90
33988;DHT22;37428;53.580;-1.666;2024-02-21T02:23:53;7.40;99.90
33988;DHT22;37428;53.580;-1.666;2024-02-21T02:26:57;7.40;99.90
33988;DHT22;37428;53.580;-1.666;2024-02-21T02:30:15;7.40;99.90
33988;DHT22;37428;53.580;-1.666;2024-02-21T02:33:18;7.40;99.90
33988;DHT22;37428;53.580;-1.666;2024-02-21T02:36:22;7.50;99.90
33988;DHT22;37428;53.580;-1.666;2024-02-21T02:39:33;7.50;99.90
33988;DHT22;37428;53.580;-1.666;2024-02-21T02:42:35;7.60;99.90
33988;DHT22;37428;53.580;-1.666;2024-02-21T02:45:40;7.60;99.90
33988;DHT22;37428;53.580;-1.666;2024-02-21T02:48:42;7.50;99.90
33988;DHT22;37428;53.580;-1.666;2024-02-21T02:51:59;7.50;99.90
33988;DHT22;37428;53.580;-1.666;2024-02-21T02:55:03;7.50;99.90
33988;DHT22;37428;53.580;-1.666;2024-02-21T02:58:06;7.40;99.90
33988;DHT22;37428;53.580;-1.666;2024-02-21T03:01:11;7.40;99.90
33988;DHT22;37428;53.580;-1.666;2024-02-21T03:04:14;7.50;99.90
33988;DHT22;37428;53.580;-1.666;2024-02-21T03:07:23;7.50;99.90
33988;DHT22;37428;53.580;-1.666;2024-02-21T03:10:37;7.50;99.90
33988;DHT22;37428;53.580;-1.666;2024-02-21T03:13:42;7.50;99.90
33988;DHT22;37428;53.580;-1.666;2024-02-21T03:16:44;7.50;99.90
33988;DHT22;37428;53.580;-1.666;2024-02-21T03:19:48;7.50;99.90
33988;DHT22;37428;53.580;-1.666;2024-02-21T03:22:53;7.60;99.90
33988;DHT22;37428;53.580;-1.666;2024-02-21T03:26:00;7.50;99.90
33988;DHT22;37428;53.580;-1.666;2024-02-21T03:29:03;7.40;99.90
33988;DHT22;37428;53.580;-1.666;2024-02-21T03:32:21;7.50;99.90
33988;DHT22;37428;53.580;-1.666;2024-02-21T03:35:24;7.50;99.90
33988;DHT22;37428;53.580;-1.666;2024-02-21T03:38:41;7.50;99.90
33988;DHT22;37428;53.580;-1.666;2024-02-21T03:41:48;7.50;99.90
33988;DHT22;37428;53.580;-1.666;2024-02-21T03:44:52;7.60;99.90
33988;DHT22;37428;53.580;-1.666;2024-02-21T03:48:06;7.70;99.90
33988;DHT22;37428;53.580;-1.666;2024-02-21T03:51:37;7.70;99.90
33988;DHT22;37428;53.580;-1.666;2024-02-21T03:54:51;7.80;99.90
33988;DHT22;37428;53.580;-1.666;2024-02-21T03:58:09;7.90;99.90
33988;DHT22;37428;53.580;-1.666;2024-02-21T04:01:15;8.00;99.90
33988;DHT22;37428;53.580;-1.666;2024-02-21T04:04:19;8.10;99.90
33988;DHT22;37428;53.580;-1.666;2024-02-21T04:07:35;8.10;99.90
33988;DHT22;37428;53.580;-1.666;2024-02-21T04:10:37;8.10;99.90
33988;DHT22;37428;53.580;-1.666;2024-02-21T04:13:44;8.10;99.90
33988;DHT22;37428;53.580;-1.666;2024-02-21T04:16:49;8.20;99.90
33988;DHT22;37428;53.580;-1.666;2024-02-21T04:19:54;8.20;99.90
33988;DHT22;37428;53.580;-1.666;2024-02-21T04:23:04;8.10;99.90
33988;DHT22;37428;53.580;-1.666;2024-02-21T04:26:20;8.10;99.90
33988;DHT22;37428;53.580;-1.666;2024-02-21T04:29:26;8.10;99.90
33988;DHT22;37428;53.580;-1.666;2024-02-21T04:32:44;8.20;99.90
33988;DHT22;37428;53.580;-1.666;2024-02-21T04:35:48;8.20;99.90
33988;DHT22;37428;53.580;-1.666;2024-02-21T04:39:00;8.10;99.90
33988;DHT22;37428;53.580;-1.666;2024-02-21T04:42:11;8.10;99.90
33988;DHT22;37428;53.580;-1.666;2024-02-21T04:45:29;8.20;99.90
33988;DHT22;37428;53.580;-1.666;2024-02-21T04:48:52;8.20;99.90
33988;DHT22;37428;53.580;-1.666;2024-02-21T04:51:54;8.20;99.90
33988;DHT22;37428;53.580;-1.666;2024-02-21T04:54:56;8.20;99.90
33988;DHT22;37428;53.580;-1.666;2024-02-21T04:57:58;8.20;99.90
33988;DHT22;37428;53.580;-1.666;2024-02-21T05:01:04;8.20;99.90
33988;DHT22;37428;53.580;-1.666;2024-02-21T05:04:08;8.20;99.90
33988;DHT22;37428;53.580;-1.666;2024-02-21T05:07:12;8.30;99.90
33988;DHT22;37428;53.580;-1.666;2024-02-21T05:10:34;8.20;99.90
33988;DHT22;37428;53.580;-1.666;2024-02-21T05:13:36;8.20;99.90
33988;DHT22;37428;53.580;-1.666;2024-02-21T05:16:40;8.20;99.90
33988;DHT22;37428;53.580;-1.666;2024-02-21T05:19:56;8.20;99.90
33988;DHT22;37428;53.580;-1.666;2024-02-21T05:23:00;8.20;99.90
33988;DHT22;37428;53.580;-1.666;2024-02-21T05:26:04;8.20;99.90
33988;DHT22;37428;53.580;-1.666;2024-02-21T05:29:07;8.20;99.90
33988;DHT22;37428;53.580;-1.666;2024-02-21T05:32:26;8.30;99.90
33988;DHT22;37428;53.580;-1.666;2024-02-21T05:35:30;8.30;99.90
33988;DHT22;37428;53.580;-1.666;2024-02-21T05:38:34;8.30;99.90
33988;DHT22;37428;53.580;-1.666;2024-02-21T05:41:43;8.30;99.90
33988;DHT22;37428;53.580;-1.666;2024-02-21T05:44:45;8.30;99.90
33988;DHT22;37428;53.580;-1.666;2024-02-21T05:47:53;8.30;99.90
33988;DHT22;37428;53.580;-1.666;2024-02-21T05:50:57;8.30;99.90
33988;DHT22;37428;53.580;-1.666;2024-02-21T05:54:15;8.30;99.90
33988;DHT22;37428;53.580;-1.666;2024-02-21T05:57:20;8.30;99.90
33988;DHT22;37428;53.580;-1.666;2024-02-21T06:00:23;8.30;99.90
33988;DHT22;37428;53.580;-1.666;2024-02-21T06:03:42;8.30;99.90
33988;DHT22;37428;53.580;-1.666;2024-02-21T06:06:51;8.30;99.90
33988;DHT22;37428;53.580;-1.666;2024-02-21T06:09:55;8.30;99.90
33988;DHT22;37428;53.580;-1.666;2024-02-21T06:13:00;8.20;99.90
33988;DHT22;37428;53.580;-1.666;2024-02-21T06:16:25;8.30;99.90
33988;DHT22;37428;53.580;-1.666;2024-02-21T06:19:31;8.20;99.90
33988;DHT22;37428;53.580;-1.666;2024-02-21T06:22:38;8.20;99.90
33988;DHT22;37428;53.580;-1.666;2024-02-21T06:25:41;8.20;99.90
33988;DHT22;37428;53.580;-1.666;2024-02-21T06:28:44;8.20;99.90
33988;DHT22;37428;53.580;-1.666;2024-02-21T06:31:47;8.20;99.90
33988;DHT22;37428;53.580;-1.666;2024-02-21T06:34:52;8.20;99.90
33988;DHT22;37428;53.580;-1.666;2024-02-21T06:37:57;8.20;99.90
33988;DHT22;37428;53.580;-1.666;2024-02-21T06:40:59;8.20;99.90
33988;DHT22;37428;53.580;-1.666;2024-02-21T06:44:05;8.20;99.90
33988;DHT22;37428;53.580;-1.666;2024-02-21T06:47:13;8.10;99.90
33988;DHT22;37428;53.580;-1.666;2024-02-21T06:50:19;8.10;99.90
33988;DHT22;37428;53.580;-1.666;2024-02-21T06:53:25;8.10;99.90
33988;DHT22;37428;53.580;-1.666;2024-02-21T06:56:27;8.00;99.90
33988;DHT22;37428;53.580;-1.666;2024-02-21T06:59:32;8.00;99.90
33988;DHT22;37428;53.580;-1.666;2024-02-21T07:02:39;8.00;99.90
33988;DHT22;37428;53.580;-1.666;2024-02-21T07:05:50;7.90;99.90
33988;DHT22;37428;53.580;-1.666;2024-02-21T07:08:53;7.90;99.90
33988;DHT22;37428;53.580;-1.666;2024-02-21T07:11:55;7.80;99.90
33988;DHT22;37428;53.580;-1.666;2024-02-21T07:14:57;7.80;99.90
33988;DHT22;37428;53.580;-1.666;2024-02-21T07:18:14;7.80;99.90
33988;DHT22;37428;53.580;-1.666;2024-02-21T07:21:17;7.70;99.90
33988;DHT22;37428;53.580;-1.666;2024-02-21T07:24:25;7.70;99.90
33988;DHT22;37428;53.580;-1.666;2024-02-21T07:27:28;7.60;99.90
33988;DHT22;37428;53.580;-1.666;2024-02-21T07:30:37;7.50;99.90
33988;DHT22;37428;53.580;-1.666;2024-02-21T07:33:40;7.40;99.90
33988;DHT22;37428;53.580;-1.666;2024-02-21T07:36:48;7.40;99.90
33988;DHT22;37428;53.580;-1.666;2024-02-21T07:39:52;7.40;99.90
33988;DHT22;37428;53.580;-1.666;2024-02-21T07:42:57;7.30;99.90
33988;DHT22;37428;53.580;-1.666;2024-02-21T07:45:59;7.30;99.90
33988;DHT22;37428;53.580;-1.666;2024-02-21T07:49:03;7.30;99.90
33988;DHT22;37428;53.580;-1.666;2024-02-21T07:52:07;7.30;99.90
33988;DHT22;37428;53.580;-1.666;2024-02-21T07:55:09;7.30;99.90
33988;DHT22;37428;53.580;-1.666;2024-02-21T07:58:12;7.30;99.90
33988;DHT22;37428;53.580;-1.666;2024-02-21T08:01:46;7.30;99.90
33988;DHT22;37428;53.580;-1.666;2024-02-21T08:04:54;7.30;99.90
33988;DHT22;37428;53.580;-1.666;2024-02-21T08:07:59;7.30;99.90
33988;DHT22;37428;53.580;-1.666;2024-02-21T08:11:08;7.30;99.90
33988;DHT22;37428;53.580;-1.666;2024-02-21T08:14:10;7.30;99.90
33988;DHT22;37428;53.580;-1.666;2024-02-21T08:17:14;7.30;99.90
33988;DHT22;37428;53.580;-1.666;2024-02-21T08:20:22;7.30;99.90
33988;DHT22;37428;53.580;-1.666;2024-02-21T08:23:39;7.30;99.90
33988;DHT22;37428;53.580;-1.666;2024-02-21T08:26:42;7.30;99.90
33988;DHT22;37428;53.580;-1.666;2024-02-21T08:29:45;7.30;99.90
33988;DHT22;37428;53.580;-1.666;2024-02-21T08:32:47;7.30;99.90
33988;DHT22;37428;53.580;-1.666;2024-02-21T08:35:50;7.40;99.90
33988;DHT22;37428;53.580;-1.666;2024-02-21T08:38:56;7.40;99.90
33988;DHT22;37428;53.580;-1.666;2024-02-21T08:41:58;7.40;99.90
33988;DHT22;37428;53.580;-1.666;2024-02-21T08:45:00;7.40;99.90
33988;DHT22;37428;53.580;-1.666;2024-02-21T08:48:24;7.40;99.90
33988;DHT22;37428;53.580;-1.666;2024-02-21T08:51:28;7.50;99.90
33988;DHT22;37428;53.580;-1.666;2024-02-21T08:54:35;7.50;99.90
33988;DHT22;37428;53.580;-1.666;2024-02-21T08:57:43;7.50;99.90
33988;DHT22;37428;53.580;-1.666;2024-02-21T09:00:47;7.60;99.90
33988;DHT22;37428;53.580;-1.666;2024-02-21T09:03:49;7.60;99.90
33988;DHT22;37428;53.580;-1.666;2024-02-21T09:06:57;7.60;99.90
33988;DHT22;37428;53.580;-1.666;2024-02-21T09:10:04;7.60;99.90
33988;DHT22;37428;53.580;-1.666;2024-02-21T09:13:10;7.70;99.90
33988;DHT22;37428;53.580;-1.666;2024-02-21T09:16:13;7.70;99.90
33988;DHT22;37428;53.580;-1.666;2024-02-21T09:19:21;7.70;99.90
33988;DHT22;37428;53.580;-1.666;2024-02-21T09:22:24;7.80;99.90
33988;DHT22;37428;53.580;-1.666;2024-02-21T09:25:30;7.80;99.90
33988;DHT22;37428;53.580;-1.666;2024-02-21T09:28:34;7.80;99.90
33988;DHT22;37428;53.580;-1.666;2024-02-21T09:31:37;7.90;99.90
33988;DHT22;37428;53.580;-1.666;2024-02-21T09:34:40;7.90;99.90
33988;DHT22;37428;53.580;-1.666;2024-02-21T09:37:42;7.90;99.90
33988;DHT22;37428;53.580;-1.666;2024-02-21T09:40:47;7.80;99.90
33988;DHT22;37428;53.580;-1.666;2024-02-21T09:43:50;7.90;99.90
33988;DHT22;37428;53.580;-1.666;2024-02-21T09:46:57;8.00;99.90
33988;DHT22;37428;53.580;-1.666;2024-02-21T09:50:07;7.90;99.90
33988;DHT22;37428;53.580;-1.666;2024-02-21T09:53:12;8.00;99.90
33988;DHT22;37428;53.580;-1.666;2024-02-21T09:56:17;8.00;99.90
33988;DHT22;37428;53.580;-1.666;2024-02-21T09:59:21;8.00;99.90
33988;DHT22;37428;53.580;-1.666;2024-02-21T10:02:24;8.10;99.90
33988;DHT22;37428;53.580;-1.666;2024-02-21T10:05:26;8.10;99.90
33988;DHT22;37428;53.580;-1.666;2024-02-21T10:08:29;8.10;99.90
33988;DHT22;37428;53.580;-1.666;2024-02-21T10:11:33;8.10;99.90
33988;DHT22;37428;53.580;-1.666;2024-02-21T10:14:37;8.20;99.90
33988;DHT22;37428;53.580;-1.666;2024-02-21T10:17:46;8.20;99.90
33988;DHT22;37428;53.580;-1.666;2024-02-21T10:21:00;8.20;99.90
33988;DHT22;37428;53.580;-1.666;2024-02-21T10:24:03;8.20;99.90
33988;DHT22;37428;53.580;-1.666;2024-02-21T10:27:09;8.20;99.90
33988;DHT22;37428;53.580;-1.666;2024-02-21T10:30:17;8.30;99.90
33988;DHT22;37428;53.580;-1.666;2024-02-21T10:33:19;8.30;99.90
33988;DHT22;37428;53.580;-1.666;2024-02-21T10:36:29;8.30;99.90
33988;DHT22;37428;53.580;-1.666;2024-02-21T10:39:32;8.30;99.90
33988;DHT22;37428;53.580;-1.666;2024-02-21T10:42:42;8.30;99.90
33988;DHT22;37428;53.580;-1.666;2024-02-21T10:45:44;8.40;99.90
33988;DHT22;37428;53.580;-1.666;2024-02-21T10:48:57;8.40;99.90
33988;DHT22;37428;53.580;-1.666;2024-02-21T10:52:14;8.40;99.90
33988;DHT22;37428;53.580;-1.666;2024-02-21T10:55:20;8.40;99.90
33988;DHT22;37428;53.580;-1.666;2024-02-21T10:58:25;8.50;99.90
33988;DHT22;37428;53.580;-1.666;2024-02-21T11:01:29;8.50;99.90
33988;DHT22;37428;53.580;-1.666;2024-02-21T11:04:33;8.50;99.90
33988;DHT22;37428;53.580;-1.666;2024-02-21T11:07:38;8.50;99.90
33988;DHT22;37428;53.580;-1.666;2024-02-21T11:10:48;8.60;99.90
33988;DHT22;37428;53.580;-1.666;2024-02-21T11:14:21;8.70;99.90
33988;DHT22;37428;53.580;-1.666;2024-02-21T11:17:54;8.70;99.90
33988;DHT22;37428;53.580;-1.666;2024-02-21T11:20:56;8.70;99.90
33988;DHT22;37428;53.580;-1.666;2024-02-21T11:24:00;8.80;99.90
33988;DHT22;37428;53.580;-1.666;2024-02-21T11:27:11;8.80;99.90
33988;DHT22;37428;53.580;-1.666;2024-02-21T11:30:15;8.90;99.90
33988;DHT22;37428;53.580;-1.666;2024-02-21T11:33:24;8.80;99.90
33988;DHT22;37428;53.580;-1.666;2024-02-21T11:36:27;8.90;99.90
33988;DHT22;37428;53.580;-1.666;2024-02-21T11:39:30;8.90;99.90
33988;DHT22;37428;53.580;-1.666;2024-02-21T11:42:32;9.00;99.90
33988;DHT22;37428;53.580;-1.666;2024-02-21T11:45:37;9.00;99.90
33988;DHT22;37428;53.580;-1.666;2024-02-21T11:48:40;9.00;99.90
33988;DHT22;37428;53.580;-1.666;2024-02-21T11:51:50;9.10;99.90
33988;DHT22;37428;53.580;-1.666;2024-02-21T11:55:05;9.10;99.90
33988;DHT22;37428;53.580;-1.666;2024-02-21T11:58:12;9.20;99.90
33988;DHT22;37428;53.580;-1.666;2024-02-21T12:01:15;9.20;99.90
33988;DHT22;37428;53.580;-1.666;2024-02-21T12:04:18;9.30;99.90
33988;DHT22;37428;53.580;-1.666;2024-02-21T12:07:25;9.30;99.90
33988;DHT22;37428;53.580;-1.666;2024-02-21T12:10:29;9.40;99.90
33988;DHT22;37428;53.580;-1.666;2024-02-21T12:13:33;9.40;99.90
33988;DHT22;37428;53.580;-1.666;2024-02-21T12:16:37;9.40;99.90
33988;DHT22;37428;53.580;-1.666;2024-02-21T12:19:44;9.40;99.90
33988;DHT22;37428;53.580;-1.666;2024-02-21T12:22:49;9.40;99.90
33988;DHT22;37428;53.580;-1.666;2024-02-21T12:25:54;9.50;99.90
33988;DHT22;37428;53.580;-1.666;2024-02-21T12:28:56;9.50;99.90
33988;DHT22;37428;53.580;-1.666;2024-02-21T12:32:00;9.70;99.90
33988;DHT22;37428;53.580;-1.666;2024-02-21T12:35:02;9.70;99.90
33988;DHT22;37428;53.580;-1.666;2024-02-21T12:38:06;9.80;99.90
33988;DHT22;37428;53.580;-1.666;2024-02-21T12:41:09;9.80;99.90
33988;DHT22;37428;53.580;-1.666;2024-02-21T12:44:12;9.90;99.90
33988;DHT22;37428;53.580;-1.666;2024-02-21T12:47:15;10.00;99.90
33988;DHT22;37428;53.580;-1.666;2024-02-21T12:50:20;10.00;99.90
33988;DHT22;37428;53.580;-1.666;2024-02-21T12:53:26;10.10;99.90
33988;DHT22;37428;53.580;-1.666;2024-02-21T12:56:42;10.10;99.90
33988;DHT22;37428;53.580;-1.666;2024-02-21T12:59:45;10.20;99.90
33988;DHT22;37428;53.580;-1.666;2024-02-21T13:02:48;10.20;99.90
33988;DHT22;37428;53.580;-1.666;2024-02-21T13:05:59;10.20;99.90
33988;DHT22;37428;53.580;-1.666;2024-02-21T13:09:02;10.30;99.90
33988;DHT22;37428;53.580;-1.666;2024-02-21T13:12:14;10.30;99.90
33988;DHT22;37428;53.580;-1.666;2024-02-21T13:15:32;10.30;99.90
33988;DHT22;37428;53.580;-1.666;2024-02-21T13:18:36;10.20;99.90
33988;DHT22;37428;53.580;-1.666;2024-02-21T13:21:45;10.30;99.90
33988;DHT22;37428;53.580;-1.666;2024-02-21T13:24:49;10.40;99.90
33988;DHT22;37428;53.580;-1.666;2024-02-21T13:27:51;10.50;99.90
33988;DHT22;37428;53.580;-1.666;2024-02-21T13:31:12;10.40;99.90
33988;DHT22;37428;53.580;-1.666;2024-02-21T13:34:18;10.50;99.90
33988;DHT22;37428;53.580;-1.666;2024-02-21T13:37:21;10.60;99.90
33988;DHT22;37428;53.580;-1.666;2024-02-21T13:40:47;10.60;99.90
33988;DHT22;37428;53.580;-1.666;2024-02-21T13:43:56;10.60;99.90
33988;DHT22;37428;53.580;-1.666;2024-02-21T13:47:01;10.60;99.90
33988;DHT22;37428;53.580;-1.666;2024-02-21T13:50:12;10.60;99.90
33988;DHT22;37428;53.580;-1.666;2024-02-21T13:53:16;10.60;99.90
33988;DHT22;37428;53.580;-1.666;2024-02-21T13:56:25;10.70;99.90
33988;DHT22;37428;53.580;-1.666;2024-02-21T13:59:27;10.70;99.90
33988;DHT22;37428;53.580;-1.666;2024-02-21T14:02:32;10.60;99.90
33988;DHT22;37428;53.580;-1.666;2024-02-21T14:05:37;10.60;99.90
33988;DHT22;37428;53.580;-1.666;2024-02-21T14:08:41;10.60;99.90
33988;DHT22;37428;53.580;-1.666;2024-02-21T14:11:43;10.70;99.90
33988;DHT22;37428;53.580;-1.666;2024-02-21T14:14:46;10.70;99.90
33988;DHT22;37428;53.580;-1.666;2024-02-21T14:17:48;10.80;99.90
33988;DHT22;37428;53.580;-1.666;2024-02-21T14:20:53;10.80;99.90
33988;DHT22;37428;53.580;-1.666;2024-02-21T14:23:55;10.80;99.90
33988;DHT22;37428;53.580;-1.666;2024-02-21T14:26:58;10.80;99.90
33988;DHT22;37428;53.580;-1.666;2024-02-21T14:30:01;10.80;99.90
33988;DHT22;37428;53.580;-1.666;2024-02-21T14:33:04;10.80;99.90
33988;DHT22;37428;53.580;-1.666;2024-02-21T14:36:10;10.80;99.90
33988;DHT22;37428;53.580;-1.666;2024-02-21T14:39:14;10.80;99.90
33988;DHT22;37428;53.580;-1.666;2024-02-21T14:42:16;10.80;99.90
33988;DHT22;37428;53.580;-1.666;2024-02-21T14:45:21;10.90;99.90
33988;DHT22;37428;53.580;-1.666;2024-02-21T14:48:23;10.90;99.90
33988;DHT22;37428;53.580;-1.666;2024-02-21T14:51:28;10.90;99.90
33988;DHT22;37428;53.580;-1.666;2024-02-21T14:54:31;11.00;99.90
33988;DHT22;37428;53.580;-1.666;2024-02-21T14:57:33;11.00;99.90
33988;DHT22;37428;53.580;-1.666;2024-02-21T15:00:36;10.90;99.90
33988;DHT22;37428;53.580;-1.666;2024-02-21T15:03:39;10.90;99.90
33988;DHT22;37428;53.580;-1.666;2024-02-21T15:06:42;10.90;99.90
33988;DHT22;37428;53.580;-1.666;2024-02-21T15:09:51;10.90;99.90
33988;DHT22;37428;53.580;-1.666;2024-02-21T15:12:53;10.90;99.90
33988;DHT22;37428;53.580;-1.666;2024-02-21T15:15:56;10.90;99.90
33988;DHT22;37428;53.580;-1.666;2024-02-21T15:18:58;10.90;99.90
33988;DHT22;37428;53.580;-1.666;2024-02-21T15:22:04;10.90;99.90
33988;DHT22;37428;53.580;-1.666;2024-02-21T15:25:08;10.90;99.90
33988;DHT22;37428;53.580;-1.666;2024-02-21T15:28:15;10.90;99.90
33988;DHT22;37428;53.580;-1.666;2024-02-21T15:31:22;10.90;99.90
33988;DHT22;37428;53.580;-1.666;2024-02-21T15:34:25;10.90;99.90
33988;DHT22;37428;53.580;-1.666;2024-02-21T15:37:35;10.90;99.90
33988;DHT22;37428;53.580;-1.666;2024-02-21T15:40:37;11.00;99.90
33988;DHT22;37428;53.580;-1.666;2024-02-21T15:43:45;11.00;99.90
33988;DHT22;37428;53.580;-1.666;2024-02-21T15:46:49;10.90;99.90
33988;DHT22;37428;53.580;-1.666;2024-02-21T15:49:52;10.90;99.90
33988;DHT22;37428;53.580;-1.666;2024-02-21T15:52:58;10.90;99.90
33988;DHT22;37428;53.580;-1.666;2024-02-21T15:56:14;10.90;99.90
33988;DHT22;37428;53.580;-1.666;2024-02-21T15:59:16;10.90;99.90
33988;DHT22;37428;53.580;-1.666;2024-02-21T16:02:18;10.90;99.90
33988;DHT22;37428;53.580;-1.666;2024-02-21T16:05:22;10.90;99.90
33988;DHT22;37428;53.580;-1.666;2024-02-21T16:08:26;10.90;99.90
33988;DHT22;37428;53.580;-1.666;2024-02-21T16:11:28;10.90;99.90
33988;DHT22;37428;53.580;-1.666;2024-02-21T16:14:37;10.90;99.90
33988;DHT22;37428;53.580;-1.666;2024-02-21T16:17:42;10.80;99.90
33988;DHT22;37428;53.580;-1.666;2024-02-21T16:20:44;10.80;99.90
33988;DHT22;37428;53.580;-1.666;2024-02-21T16:23:49;10.80;99.90
33988;DHT22;37428;53.580;-1.666;2024-02-21T16:26:52;10.80;99.90
33988;DHT22;37428;53.580;-1.666;2024-02-21T16:29:54;10.70;99.90
33988;DHT22;37428;53.580;-1.666;2024-02-21T16:32:56;10.80;99.90
33988;DHT22;37428;53.580;-1.666;2024-02-21T16:35:58;10.70;99.90
33988;DHT22;37428;53.580;-1.666;2024-02-21T16:39:04;10.70;99.90
33988;DHT22;37428;53.580;-1.666;2024-02-21T16:42:07;10.60;99.90
33988;DHT22;37428;53.580;-1.666;2024-02-21T16:45:11;10.60;99.90
33988;DHT22;37428;53.580;-1.666;2024-02-21T16:48:13;10.60;99.90
33988;DHT22;37428;53.580;-1.666;2024-02-21T16:51:15;10.60;99.90
33988;DHT22;37428;53.580;-1.666;2024-02-21T16:54:22;10.60;99.90
33988;DHT22;37428;53.580;-1.666;2024-02-21T16:57:26;10.60;99.90
33988;DHT22;37428;53.580;-1.666;2024-02-21T17:00:28;10.50;99.90
33988;DHT22;37428;53.580;-1.666;2024-02-21T17:03:34;10.60;99.90
33988;DHT22;37428;53.580;-1.666;2024-02-21T17:06:50;10.60;99.90
33988;DHT22;37428;53.580;-1.666;2024-02-21T17:10:00;10.50;99.90
33988;DHT22;37428;53.580;-1.666;2024-02-21T17:13:03;10.40;99.90
33988;DHT22;37428;53.580;-1.666;2024-02-21T17:16:24;10.30;99.90
33988;DHT22;37428;53.580;-1.666;2024-02-21T17:19:26;10.20;99.90
33988;DHT22;37428;53.580;-1.666;2024-02-21T17:22:34;10.20;99.90
33988;DHT22;37428;53.580;-1.666;2024-02-21T17:25:38;10.10;99.90
33988;DHT22;37428;53.580;-1.666;2024-02-21T17:28:42;10.10;99.90
33988;DHT22;37428;53.580;-1.666;2024-02-21T17:31:45;10.10;99.90
33988;DHT22;37428;53.580;-1.666;2024-02-21T17:34:49;10.00;99.90
33988;DHT22;37428;53.580;-1.666;2024-02-21T17:37:51;9.90;99.90
33988;DHT22;37428;53.580;-1.666;2024-02-21T17:40:55;9.90;99.90
33988;DHT22;37428;53.580;-1.666;2024-02-21T17:43:57;9.90;99.90
33988;DHT22;37428;53.580;-1.666;2024-02-21T17:46:59;9.80;99.90
33988;DHT22;37428;53.580;-1.666;2024-02-21T17:50:21;9.90;99.90
33988;DHT22;37428;53.580;-1.666;2024-02-21T17:53:25;9.80;99.90
33988;DHT22;37428;53.580;-1.666;2024-02-21T17:56:32;9.80;99.90
33988;DHT22;37428;53.580;-1.666;2024-02-21T17:59:40;9.80;99.90
33988;DHT22;37428;53.580;-1.666;2024-02-21T18:02:47;9.80;99.90
33988;DHT22;37428;53.580;-1.666;2024-02-21T18:06:22;9.80;99.90
33988;DHT22;37428;53.580;-1.666;2024-02-21T18:09:34;9.70;99.90
33988;DHT22;37428;53.580;-1.666;2024-02-21T18:12:39;9.70;99.90
33988;DHT22;37428;53.580;-1.666;2024-02-21T18:15:41;9.70;99.90
33988;DHT22;37428;53.580;-1.666;2024-02-21T18:18:44;9.70;99.90
33988;DHT22;37428;53.580;-1.666;2024-02-21T18:21:47;9.60;99.90
33988;DHT22;37428;53.580;-1.666;2024-02-21T18:24:49;9.60;99.90
33988;DHT22;37428;53.580;-1.666;2024-02-21T18:27:53;9.60;99.90
33988;DHT22;37428;53.580;-1.666;2024-02-21T18:30:57;9.60;99.90
33988;DHT22;37428;53.580;-1.666;2024-02-21T18:34:00;9.50;99.90
33988;DHT22;37428;53.580;-1.666;2024-02-21T18:37:04;9.50;99.90
33988;DHT22;37428;53.580;-1.666;2024-02-21T18:40:07;9.50;99.90
33988;DHT22;37428;53.580;-1.666;2024-02-21T18:43:16;9.40;99.90
33988;DHT22;37428;53.580;-1.666;2024-02-21T18:46:18;9.40;99.90
33988;DHT22;37428;53.580;-1.666;2024-02-21T18:49:22;9.30;99.90
33988;DHT22;37428;53.580;-1.666;2024-02-21T18:52:26;9.30;99.90
33988;DHT22;37428;53.580;-1.666;2024-02-21T18:55:30;9.30;99.90
33988;DHT22;37428;53.580;-1.666;2024-02-21T18:58:35;9.30;99.90
33988;DHT22;37428;53.580;-1.666;2024-02-21T19:01:37;9.20;99.90
33988;DHT22;37428;53.580;-1.666;2024-02-21T19:04:41;9.10;99.90
33988;DHT22;37428;53.580;-1.666;2024-02-21T19:07:43;9.10;99.90
33988;DHT22;37428;53.580;-1.666;2024-02-21T19:10:46;9.00;99.90
33988;DHT22;37428;53.580;-1.666;2024-02-21T19:13:51;9.00;99.90
33988;DHT22;37428;53.580;-1.666;2024-02-21T19:16:56;9.00;99.90
33988;DHT22;37428;53.580;-1.666;2024-02-21T19:20:00;8.90;99.90
33988;DHT22;37428;53.580;-1.666;2024-02-21T19:23:03;8.90;99.90
33988;DHT22;37428;53.580;-1.666;2024-02-21T19:26:07;8.90;99.90
33988;DHT22;37428;53.580;-1.666;2024-02-21T19:29:14;8.90;99.90
33988;DHT22;37428;53.580;-1.666;2024-02-21T19:32:19;8.90;99.90